Latest Weather Observations for Lake Macquarie - Cooranbong

IDN60901

Issued at 1:32 pm EDT Thursday 5 March 2015 (issued every 10 minutes, with the page automatically refreshed every 10 minutes)

About weather observations | Map of Sydney area stations | Latest observations for Sydney area | Other Formats
Station Details ID: 061412 Name: LAKE MACQUARIE AWS Lat: -33.09 Lon: 151.46 Height: 6.0 m
Data from the previous 72 hours. | See also: Recent months at Lake Macquarie - Cooranbong
Date/Time
EDT
Tmp

°C
App
Tmp
°C
Dew
Point
°C
Rel
Hum
%
Delta-T

°C
Wind Press
QNH
hPa
Press
MSL
hPa
Rain
since
9 am
mm
Dir
 
Spd
km/h
Gust
km/h
Spd
kts
Gust
kts
05/01:30pm 29.0 25.7 4.5 21 12.6 SW 11 26 6 14 1006.7 1006.7 0.2
05/01:00pm 29.4 26.5 6.7 24 12.1 W 11 26 6 14 1006.6 1006.6 0.2
05/12:30pm 28.7 25.8 6.7 25 11.7 WSW 11 19 6 10 1006.9 1006.9 0.2
05/12:00pm 28.3 24.6 6.4 25 11.6 W 15 26 8 14 1007.3 1007.3 0.2
05/11:30am 27.9 25.3 6.1 25 11.4 WSW 9 15 5 8 1007.6 1007.6 0.2
05/11:00am 27.6 24.7 6.4 26 11.2 WSW 11 20 6 11 1007.5 1007.5 0.2
05/10:30am 27.2 23.9 4.3 23 11.6 W 11 20 6 11 1007.2 1007.2 0.0
05/10:00am 26.8 23.9 2.7 21 11.8 WSW 7 19 4 10 1006.7 1006.7 0.0
05/09:30am 26.4 24.1 4.8 25 11.0 W 6 11 3 6 1006.4 1006.4 0.0
05/09:00am 25.1 23.7 9.4 37 8.6 WSW 7 13 4 7 1006.5 1006.5 0.0
05/08:30am 21.4 23.3 16.6 74 2.9 WNW 2 6 1 3 1006.2 1006.2 0.0
05/08:00am 18.7 20.7 17.0 90 1.0 WNW 2 4 1 2 1006.0 1006.0 0.0
05/07:30am 17.2 18.7 16.6 96 0.4 WNW 4 7 2 4 1005.5 1005.5 0.0
05/07:00am 15.9 17.6 15.3 96 0.3 CALM 0 4 0 2 1005.2 1005.2 0.0
05/06:30am 16.3 18.2 15.7 96 0.4 CALM 0 0 0 0 1004.9 1004.9 0.0
05/05:30am 17.4 19.7 16.8 96 0.4 CALM 0 0 0 0 1004.5 1004.5 0.0
05/05:00am 17.8 20.3 17.2 96 0.4 CALM 0 0 0 0 1004.5 1004.5 0.0
05/04:30am 17.9 20.4 17.3 96 0.4 CALM 0 0 0 0 1004.8 1004.8 0.0
05/04:00am 18.3 20.6 17.7 96 0.4 E 2 2 1 1 1005.1 1005.1 0.0
05/03:30am 18.5 21.3 17.9 96 0.4 CALM 0 0 0 0 1005.4 1005.4 0.0
05/03:00am 18.6 21.4 17.9 96 0.4 CALM 0 0 0 0 1005.7 1005.7 0.0
05/02:30am 19.0 21.9 18.3 96 0.4 CALM 0 0 0 0 1006.3 1006.3 0.0
05/02:00am 19.3 22.3 18.5 95 0.5 CALM 0 0 0 0 1006.6 1006.6 0.0
05/01:30am 19.9 23.2 19.1 95 0.5 CALM 0 0 0 0 1006.8 1006.8 0.0
05/01:00am 19.7 22.9 18.9 95 0.5 CALM 0 0 0 0 1007.3 1007.3 0.0
05/12:30am 19.8 22.9 18.6 93 0.7 CALM 0 0 0 0 1007.5 1007.5 0.0
 
Date/Time
EDT
Tmp

°C
App
Tmp
°C
Dew
Point
°C
Rel
Hum
%
Delta-T

°C
Wind Press
QNH
hPa
Press
MSL
hPa
Rain
since
9 am
mm
Dir
 
Spd
km/h
Gust
km/h
Spd
kts
Gust
kts
04/11:30pm 20.6 24.1 19.6 94 0.6 CALM 0 0 0 0 1008.0 1008.0 0.0
04/11:00pm 20.7 24.2 19.5 93 0.8 CALM 0 0 0 0 1008.2 1008.2 0.0
04/10:30pm 21.1 24.8 19.9 93 0.8 CALM 0 0 0 0 1008.4 1008.4 0.0
04/10:00pm 21.3 24.9 19.8 91 1.0 CALM 0 0 0 0 1008.6 1008.6 0.0
04/09:30pm 21.7 25.3 19.8 89 1.2 CALM 0 0 0 0 1008.8 1008.8 0.0
04/09:00pm 21.9 25.5 19.8 88 1.3 CALM 0 0 0 0 1008.7 1008.7 0.0
04/08:30pm 22.2 25.8 19.7 86 1.6 CALM 0 0 0 0 1008.6 1008.6 0.0
04/08:00pm 23.0 26.7 20.0 83 1.9 CALM 0 0 0 0 1008.4 1008.4 0.0
04/07:30pm 24.1 27.9 20.2 79 2.5 CALM 0 0 0 0 1008.5 1008.5 0.0
04/07:00pm 24.6 28.3 19.9 75 3.0 CALM 0 2 0 1 1008.5 1008.5 0.0
04/06:30pm 25.1 27.6 19.9 73 3.4 ENE 6 9 3 5 1008.5 1008.5 0.0
04/06:00pm 25.4 27.4 20.0 72 3.5 E 9 15 5 8 1008.8 1008.8 0.0
04/05:30pm 25.8 27.8 19.9 70 3.8 E 9 17 5 9 1008.8 1008.8 0.0
04/05:00pm 26.4 27.9 20.5 70 3.9 E 13 20 7 11 1008.8 1008.8 0.0
04/04:30pm 26.4 28.3 20.5 70 3.9 E 11 20 6 11 1008.7 1008.7 0.0
04/04:00pm 28.0 30.3 21.3 67 4.5 E 11 19 6 10 1009.0 1009.0 0.0
04/03:30pm 28.6 31.7 21.4 65 4.8 SE 7 15 4 8 1009.3 1009.3 0.0
04/03:00pm 28.4 30.8 20.9 64 5.0 SSE 9 19 5 10 1009.5 1009.5 0.0
04/02:30pm 27.8 30.6 19.6 61 5.3 SSE 4 11 2 6 1009.9 1009.9 0.0
04/02:00pm 28.2 30.7 20.2 62 5.3 S 7 13 4 7 1010.5 1010.5 0.0
04/01:30pm 27.5 29.6 20.1 64 4.8 SW 9 19 5 10 1010.8 1010.8 0.0
04/01:00pm 26.3 28.3 19.9 68 4.2 SSW 9 17 5 9 1011.4 1011.4 0.0
04/12:30pm 26.3 28.6 19.9 68 4.2 SW 7 15 4 8 1011.8 1011.8 0.0
04/12:00pm 26.7 29.2 19.8 66 4.5 S 6 9 3 5 1011.8 1011.8 0.0
04/11:30am 26.8 29.5 20.2 67 4.3 SSW 6 13 3 7 1012.4 1012.4 0.0
04/11:00am 26.2 29.0 20.5 71 3.7 WSW 6 9 3 5 1012.6 1012.6 0.0
04/10:30am 24.8 27.9 19.6 73 3.3 WNW 2 6 1 3 1012.8 1012.8 0.0
04/10:00am 24.0 27.1 19.5 76 2.9 SW 2 6 1 3 1013.0 1013.0 0.0
04/09:30am 23.5 26.8 20.0 81 2.3 SSW 2 4 1 2 1013.0 1013.0 0.0
04/09:00am 22.4 25.6 19.8 85 1.7 SW 2 7 1 4 1013.1 1013.1 0.0
04/08:30am 22.1 25.2 19.6 86 1.6 WSW 2 4 1 2 1012.6 1012.6 0.0
04/08:00am 21.7 24.5 19.6 88 1.3 WSW 4 6 2 3 1012.8 1012.8 0.0
04/07:30am 21.3 24.4 19.4 89 1.2 WSW 2 4 1 2 1012.2 1012.2 0.0
04/07:00am 21.1 24.1 19.2 89 1.2 SW 2 4 1 2 1011.9 1011.9 0.0
04/06:30am 21.3 24.3 19.2 88 1.3 WSW 2 6 1 3 1011.8 1011.8 0.0
04/06:00am 21.2 24.1 19.1 88 1.3 WSW 2 7 1 4 1011.7 1011.7 0.0
04/05:30am 21.2 24.5 19.1 88 1.3 CALM 0 4 0 2 1011.6 1011.6 0.0
04/05:00am 21.5 24.5 19.2 87 1.5 WSW 2 6 1 3 1011.6 1011.6 0.0
04/04:30am 21.4 24.3 19.1 87 1.5 SW 2 6 1 3 1011.6 1011.6 0.0
04/04:00am 21.5 24.1 19.2 87 1.5 SW 4 6 2 3 1011.8 1011.8 0.0
04/03:30am 21.5 24.0 19.1 86 1.5 WSW 4 7 2 4 1012.1 1012.1 0.0
04/03:00am 21.4 24.7 19.0 86 1.5 CALM 0 4 0 2 1012.3 1012.3 0.0
04/02:30am 21.3 24.5 18.9 86 1.5 CALM 0 4 0 2 1012.3 1012.3 0.0
04/02:00am 21.2 24.0 18.9 87 1.4 SW 2 6 1 3 1012.7 1012.7 0.0
04/01:30am 20.9 23.3 18.8 88 1.3 WSW 4 6 2 3 1013.0 1013.0 0.0
04/01:00am 20.5 23.7 18.8 90 1.1 CALM 0 0 0 0 1013.0 1013.0 0.0
04/12:30am 20.6 23.6 18.5 88 1.3 CALM 0 0 0 0 1013.2 1013.2 0.0
04/12:00am 20.7 23.8 18.6 88 1.3 CALM 0 0 0 0 1013.3 1013.3 0.0
 
Date/Time
EDT
Tmp

°C
App
Tmp
°C
Dew
Point
°C
Rel
Hum
%
Delta-T

°C
Wind Press
QNH
hPa
Press
MSL
hPa
Rain
since
9 am
mm
Dir
 
Spd
km/h
Gust
km/h
Spd
kts
Gust
kts
03/11:30pm 20.7 23.9 18.8 89 1.2 CALM 0 0 0 0 1013.4 1013.4 0.0
03/11:00pm 21.0 24.1 18.6 86 1.5 CALM 0 0 0 0 1013.7 1013.7 0.0
03/10:30pm 21.2 24.3 18.6 85 1.6 CALM 0 0 0 0 1013.8 1013.8 0.0
03/10:00pm 21.3 24.2 18.3 83 1.9 CALM 0 0 0 0 1013.9 1013.9 0.0
03/09:30pm 21.4 24.5 18.6 84 1.8 CALM 0 0 0 0 1013.9 1013.9 0.0
03/09:00pm 21.5 24.3 17.9 80 2.2 CALM 0 0 0 0 1013.7 1013.7 0.0
03/08:30pm 22.3 25.1 17.9 76 2.7 CALM 0 0 0 0 1013.5 1013.5 0.0
03/08:00pm 22.8 25.1 17.7 73 3.2 SE 2 6 1 3 1013.4 1013.4 0.0
03/07:30pm 23.1 25.6 17.3 70 3.6 CALM 0 2 0 1 1013.1 1013.1 0.0
03/07:00pm 23.6 25.4 17.3 67 3.9 NE 4 9 2 5 1013.2 1013.2 0.0
03/06:30pm 24.3 25.9 18.2 68 3.8 ENE 7 11 4 6 1013.2 1013.2 0.0
03/06:00pm 24.1 24.7 17.6 67 4.0 E 11 20 6 11 1013.2 1013.2 0.0
03/05:30pm 24.7 24.5 17.7 65 4.4 ESE 15 24 8 13 1013.0 1013.0 0.0
03/05:00pm 24.8 24.2 17.5 64 4.6 E 17 26 9 14 1012.9 1012.9 0.0
03/04:30pm 25.5 26.2 17.9 63 4.8 E 11 20 6 11 1012.7 1012.7 0.0
03/04:00pm 24.8 24.5 17.3 63 4.7 E 15 26 8 14 1012.9 1012.9 0.0
03/03:30pm 25.5 25.5 17.2 60 5.2 E 13 22 7 12 1012.9 1012.9 0.0
03/03:00pm 25.6 25.1 17.8 62 4.9 ESE 17 26 9 14 1013.1 1013.1 0.0
03/02:30pm 26.4 26.5 17.5 58 5.6 E 13 22 7 12 1013.5 1013.5 0.0
03/02:00pm 26.7 26.7 17.2 56 5.9 ESE 13 20 7 11 1013.6 1013.6 0.0
03/01:30pm 27.9 29.3 17.7 53 6.4 ENE 7 11 4 6 1013.9 1013.9 0.0
03/01:00pm 27.5 28.8 17.1 53 6.5 NNE 6 11 3 6 1014.4 1014.4 0.0
03/12:30pm 27.0 28.5 17.5 56 6.0 ENE 6 9 3 5 1015.0 1015.0 0.0
03/12:00pm 25.5 25.8 14.6 51 6.5 NNE 6 15 3 8 1015.6 1015.6 0.0
03/11:30am 25.4 26.1 16.0 56 5.7 NNE 7 15 4 8 1016.0 1016.0 0.0
03/11:00am 24.6 24.1 15.0 55 5.7 NNE 11 17 6 9 1016.4 1016.4 0.0
03/10:30am 23.9 24.3 15.4 59 5.1 NNE 7 15 4 8 1016.6 1016.6 0.0
03/10:00am 23.2 23.9 15.5 62 4.6 NE 6 9 3 5 1016.5 1016.5 0.0
03/09:30am 21.9 23.7 16.4 71 3.3 NNE 2 6 1 3 1016.5 1016.5 0.0
03/09:00am 19.3 21.2 16.7 85 1.6 WNW 2 4 1 2 1016.4 1016.4 0.0
03/08:30am 17.8 20.1 16.8 94 0.6 CALM 0 0 0 0 1016.1 1016.1 0.0
03/08:00am 15.3 16.9 15.0 98 0.2 CALM 0 0 0 0 1016.3 1016.3 0.0
03/07:30am 13.1 13.9 12.5 96 0.3 CALM 0 0 0 0 1016.1 1016.1 0.0
03/07:00am 12.6 13.2 12.0 96 0.3 CALM 0 0 0 0 1015.8 1015.8 0.0
03/06:30am 12.5 13.0 11.7 95 0.4 CALM 0 0 0 0 1015.6 1015.6 0.0
03/06:00am 12.8 13.4 12.0 95 0.4 CALM 0 0 0 0 1015.5 1015.5 0.0
03/05:30am 12.6 13.2 11.8 95 0.4 CALM 0 0 0 0 1015.2 1015.2 0.0
03/05:00am 13.1 13.8 12.3 95 0.4 CALM 0 0 0 0 1015.1 1015.1 0.0
03/04:30am 12.9 13.6 12.1 95 0.4 CALM 0 0 0 0 1015.3 1015.3 0.0
03/04:00am 13.4 14.2 12.6 95 0.4 CALM 0 0 0 0 1015.3 1015.3 0.0
03/03:30am 13.4 14.2 12.5 94 0.5 CALM 0 0 0 0 1015.7 1015.7 0.0
03/03:00am 13.7 14.6 12.8 94 0.5 CALM 0 0 0 0 1015.9 1015.9 0.0
03/02:30am 14.1 15.1 13.1 94 0.6 CALM 0 0 0 0 1016.3 1016.3 0.0
03/02:00am 13.9 14.8 12.8 93 0.6 CALM 0 0 0 0 1016.6 1016.6 0.0
03/01:30am 14.2 15.2 13.1 93 0.6 CALM 0 0 0 0 1017.2 1017.2 0.0
03/01:00am 14.7 15.9 13.7 94 0.6 CALM 0 0 0 0 1017.7 1017.7 0.0
03/12:30am 14.8 16.0 13.7 93 0.6 CALM 0 0 0 0 1018.0 1018.0 0.0
03/12:00am 15.0 16.2 13.7 92 0.7 CALM 0 0 0 0 1018.0 1018.0 0.0
 
Date/Time
EDT
Tmp

°C
App
Tmp
°C
Dew
Point
°C
Rel
Hum
%
Delta-T

°C
Wind Press
QNH
hPa
Press
MSL
hPa
Rain
since
9 am
mm
Dir
 
Spd
km/h
Gust
km/h
Spd
kts
Gust
kts
02/11:30pm 15.4 16.7 14.1 92 0.7 CALM 0 0 0 0 1017.8 1017.8 0.0
02/11:00pm 15.9 17.3 14.4 91 0.9 CALM 0 0 0 0 1017.9 1017.9 0.0
02/10:30pm 16.1 17.6 14.6 91 0.9 CALM 0 0 0 0 1018.1 1018.1 0.0
02/10:00pm 16.7 18.3 14.9 89 1.0 CALM 0 0 0 0 1018.2 1018.2 0.0
02/09:30pm 17.1 18.7 14.9 87 1.3 CALM 0 0 0 0 1018.3 1018.3 0.0
02/09:00pm 17.6 19.2 14.9 84 1.6 CALM 0 0 0 0 1018.2 1018.2 0.0
02/08:30pm 18.8 20.5 15.1 79 2.2 CALM 0 4 0 2 1018.2 1018.2 0.0
02/08:00pm 19.8 21.0 13.7 68 3.5 CALM 0 0 0 0 1017.8 1017.8 0.0
02/07:30pm 21.0 21.4 13.7 63 4.2 ESE 4 4 2 2 1017.6 1017.6 0.0
02/07:00pm 21.7 22.6 14.1 62 4.4 SE 2 6 1 3 1017.3 1017.3 0.0
02/06:30pm 22.3 22.4 13.9 59 4.9 ESE 6 7 3 4 1016.9 1016.9 0.0
02/06:00pm 22.4 22.1 13.2 56 5.3 ESE 7 15 4 8 1016.9 1016.9 0.0
02/05:30pm 22.6 22.5 13.9 58 5.1 ESE 7 11 4 6 1016.7 1016.7 0.0
02/05:00pm 22.6 22.6 13.7 57 5.2 ESE 6 9 3 5 1016.7 1016.7 0.0
02/04:30pm 22.2 22.4 14.6 62 4.5 ESE 7 13 4 7 1016.7 1016.7 0.0
02/04:00pm 22.4 22.5 14.5 61 4.6 SSE 7 15 4 8 1017.0 1017.0 0.0
02/03:30pm 23.3 23.9 15.9 63 4.5 SE 7 17 4 9 1017.0 1017.0 0.0
02/03:00pm 22.8 23.5 15.6 64 4.3 SSE 6 9 3 5 1017.5 1017.5 0.0
02/02:30pm 22.4 23.1 16.0 67 3.9 SSE 7 13 4 7 1017.8 1017.8 0.0
02/02:00pm 22.4 23.1 16.0 67 3.9 SSE 7 15 4 8 1018.2 1018.2 0.0

Latest Capital City Observations: Canberra | Sydney | Melbourne | Brisbane | Adelaide | Perth | Hobart | Darwin

Other Formats:

Comma delimited format used in spreadsheet applications
http://www.bom.gov.au/fwo/IDN60901/IDN60901.95767.axf

JavaScript Object Notation format (JSON) in row-major order
http://www.bom.gov.au/fwo/IDN60901/IDN60901.95767.json